JP-0077 weather

Tokushima Municipal Helipad
Tokushima, Tokushima Prefecture, Japan

Public forecast

Using degrees Celsius for public forecast. Weather courtesy of forecast.io.

METAR (pilot weather report)

Closest report is Tokushima Airport/JMSDF Air Base, 3.7 nm (6.9 km) NE. Retrieved 2019/05/23 02:00 UTC (11 minutes ago):

RJOS 230200Z 14004KT 090V170 9999 NSC 22/14 Q1010

TAF (pilot weather forecast)

Forecast is more than 12 hours old.

Closest forecast is Takamatsu Airport, 28.3 nm (52.4 km) WNW. Retrieved 2019/05/22 00:30 UTC (1 day ago):

TAF TAF RJOT 222306Z 2300/2406 28009KT 9999 FEW030